Terminal Aerodrome Forecast
Issued by NWS

Home | Current Version | Previous Version | Text Only | Print | Product List | Glossary On
Versions: 1 2 3 4 5 6 7 8 9 10 11 12
954
FTUS45 KABQ 192333
TAFFMN
TAF
KFMN 192333Z 2000/2024 26010G18KT P6SM VCSH SCT045 BKN080
      TEMPO 2000/2002 -SHRA SCT025 BKN035
     FM200200 28006KT P6SM SCT050 BKN070
     FM201100 VRB05KT 3SM BR BKN012
     FM201600 VRB05KT P6SM FEW025
     FM201900 28005KT P6SM FEW150=

USA.gov is the U.S. government's official web portal to all federal, state and local government web resources and services.